CMA CGM La Boussole — A8FZ6 — position and weather

sailwx.info

Track history (hours):
 
Tides and Currents Weather Stations Pressure Air Temp Water Temp Dewpoint Dewpoint Depression Visibility Wind Speed Wind Dir Waves Ship Positions

CMA CGM La Boussole

Last reported at 2015-Jul-23 21:09 UTC. Time now 2015-Jul-28 19:49 UTC.
Position N 14°27' W 061°50'.

Length 210.1 m; beam 30.2 m; draft 11.5 m.

Type: Ship (hazmat cat A). MMSI: 636017045.

Date/timePositionNaut miles runAvg speedWind from/ knotsBaromVisibWave heightAir tempDewpointWater temp
2015-Jul-23 21:09N 14°27' W 061°50'1016.9
2015-Jul-23 20:34N 14°29' W 061°40'1716.9
2015-Jul-23 19:34N 14°33' W 061°23'1616.3
2015-Jul-23 18:34N 14°35' W 061°06'3 2.7
2015-Jul-23 17:31N 14°36' W 061°03'0 0.0
2015-Jul-23 16:33N 14°36' W 061°03'0 0.0
2015-Jul-23 15:33N 14°36' W 061°03'0 0.0
2015-Jul-23 14:32N 14°36' W 061°03'0 0.0
2015-Jul-23 13:32N 14°36' W 061°03'0 0.0
2015-Jul-23 12:29N 14°36' W 061°03'0 0.0
2015-Jul-23 11:31N 14°36' W 061°03'0 0.0
2015-Jul-23 10:31N 14°36' W 061°03'0 0.2
2015-Jul-23 09:33N 14°35' W 061°03'7 6.5
2015-Jul-23 08:33N 14°37' W 061°10'1515.2
2015-Jul-23 07:33N 14°48' W 061°19'86 4.7
2015-Jul-22 13:21N 16°14' W 061°33'0 0.0
2015-Jul-22 12:33N 16°14' W 061°33'0 0.0
2015-Jul-22 11:23N 16°14' W 061°33'0 0.0
2015-Jul-22 10:32N 16°14' W 061°33'0 0.1
2015-Jul-22 09:33N 16°14' W 061°32'6 5.0
2015-Jul-22 08:16N 16°09' W 061°29'  
2015-Jul-15 16:32N 34°01' W 018°12'1716.4
2015-Jul-15 15:29N 34°05' W 017°52'3216.6
2015-Jul-15 13:33N 34°12' W 017°14'1716.6
2015-Jul-15 12:32N 34°16' W 016°55'1616.5
2015-Jul-15 11:33N 34°20' W 016°36'3316.3
2015-Jul-15 09:31N 34°28' W 015°57'1616.5
2015-Jul-15 08:32N 34°32' W 015°37'1916.7
2015-Jul-15 07:23N 34°37' W 015°15'3116.9
2015-Jul-15 05:32N 34°43' W 014°38'2016.7
2015-Jul-15 04:22N 34°47' W 014°14'3216.5
2015-Jul-15 02:27N 34°53' W 013°36'1516.7
2015-Jul-15 01:33N 34°56' W 013°18'1616.4
2015-Jul-15 00:33N 34°59' W 012°59'1616.1
2015-Jul-14 23:33N 35°02' W 012°39'1716.5
2015-Jul-14 22:34N 35°05' W 012°20'1716.8
2015-Jul-14 21:33N 35°08' W 011°59'1716.6
2015-Jul-14 20:33N 35°11' W 011°39'1716.5
2015-Jul-14 19:33N 35°14' W 011°19'1716.7
2015-Jul-14 18:33N 35°18' W 010°59'1716.7
2015-Jul-14 17:34N 35°21' W 010°39'1716.6
2015-Jul-14 16:33N 35°24' W 010°19'1716.6
2015-Jul-14 15:33N 35°27' W 009°59'1616.3
2015-Jul-14 14:33N 35°30' W 009°40'1616.4
2015-Jul-14 13:33N 35°32' W 009°20'1616.3
2015-Jul-14 12:33N 35°35' W 008°60'1616.1
2015-Jul-14 11:33N 35°38' W 008°40'1716.5
2015-Jul-14 10:34N 35°41' W 008°20'1716.7
2015-Jul-14 09:33N 35°43' W 007°60'1717.0
2015-Jul-14 08:33N 35°46' W 007°39'1717.5
2015-Jul-14 07:33N 35°49' W 007°18'1817.7
2015-Jul-14 06:33N 35°52' W 006°56'3316.3
2015-Jul-14 04:33N 35°56' W 006°17'1616.2
2015-Jul-14 03:33N 35°57' W 005°57'1916.1
2015-Jul-14 02:23N 35°58' W 005°33'  
Track history (hours):
 
Tides and Currents Weather Stations Pressure Air Temp Water Temp Dewpoint Dewpoint Depression Visibility Wind Speed Wind Dir Waves Ship Positions

CMA CGM La Boussole

Last reported at 2015-Jul-23 21:09 UTC. Time now 2015-Jul-28 19:49 UTC.
Position N 14°27' W 061°50'.

Length 210.1 m; beam 30.2 m; draft 11.5 m.

Type: Ship (hazmat cat A). MMSI: 636017045.

Date/timePositionNaut miles runAvg speedWind from/ knotsBaromVisibWave heightAir tempDewpointWater temp
2015-Jul-23 21:09N 14°27' W 061°50'1016.9
2015-Jul-23 20:34N 14°29' W 061°40'1716.9
2015-Jul-23 19:34N 14°33' W 061°23'1616.3
2015-Jul-23 18:34N 14°35' W 061°06'3 2.7
2015-Jul-23 17:31N 14°36' W 061°03'0 0.0
2015-Jul-23 16:33N 14°36' W 061°03'0 0.0
2015-Jul-23 15:33N 14°36' W 061°03'0 0.0
2015-Jul-23 14:32N 14°36' W 061°03'0 0.0
2015-Jul-23 13:32N 14°36' W 061°03'0 0.0
2015-Jul-23 12:29N 14°36' W 061°03'0 0.0
2015-Jul-23 11:31N 14°36' W 061°03'0 0.0
2015-Jul-23 10:31N 14°36' W 061°03'0 0.2
2015-Jul-23 09:33N 14°35' W 061°03'7 6.5
2015-Jul-23 08:33N 14°37' W 061°10'1515.2
2015-Jul-23 07:33N 14°48' W 061°19'86 4.7
2015-Jul-22 13:21N 16°14' W 061°33'0 0.0
2015-Jul-22 12:33N 16°14' W 061°33'0 0.0
2015-Jul-22 11:23N 16°14' W 061°33'0 0.0
2015-Jul-22 10:32N 16°14' W 061°33'0 0.1
2015-Jul-22 09:33N 16°14' W 061°32'6 5.0
2015-Jul-22 08:16N 16°09' W 061°29'  
2015-Jul-15 16:32N 34°01' W 018°12'1716.4
2015-Jul-15 15:29N 34°05' W 017°52'3216.6
2015-Jul-15 13:33N 34°12' W 017°14'1716.6
2015-Jul-15 12:32N 34°16' W 016°55'1616.5
2015-Jul-15 11:33N 34°20' W 016°36'3316.3
2015-Jul-15 09:31N 34°28' W 015°57'1616.5
2015-Jul-15 08:32N 34°32' W 015°37'1916.7
2015-Jul-15 07:23N 34°37' W 015°15'3116.9
2015-Jul-15 05:32N 34°43' W 014°38'2016.7
2015-Jul-15 04:22N 34°47' W 014°14'3216.5
2015-Jul-15 02:27N 34°53' W 013°36'1516.7
2015-Jul-15 01:33N 34°56' W 013°18'1616.4
2015-Jul-15 00:33N 34°59' W 012°59'1616.1
2015-Jul-14 23:33N 35°02' W 012°39'1716.5
2015-Jul-14 22:34N 35°05' W 012°20'1716.8
2015-Jul-14 21:33N 35°08' W 011°59'1716.6
2015-Jul-14 20:33N 35°11' W 011°39'1716.5
2015-Jul-14 19:33N 35°14' W 011°19'1716.7
2015-Jul-14 18:33N 35°18' W 010°59'1716.7
2015-Jul-14 17:34N 35°21' W 010°39'1716.6
2015-Jul-14 16:33N 35°24' W 010°19'1716.6
2015-Jul-14 15:33N 35°27' W 009°59'1616.3
2015-Jul-14 14:33N 35°30' W 009°40'1616.4
2015-Jul-14 13:33N 35°32' W 009°20'1616.3
2015-Jul-14 12:33N 35°35' W 008°60'1616.1
2015-Jul-14 11:33N 35°38' W 008°40'1716.5
2015-Jul-14 10:34N 35°41' W 008°20'1716.7
2015-Jul-14 09:33N 35°43' W 007°60'1717.0
2015-Jul-14 08:33N 35°46' W 007°39'1717.5
2015-Jul-14 07:33N 35°49' W 007°18'1817.7
2015-Jul-14 06:33N 35°52' W 006°56'3316.3
2015-Jul-14 04:33N 35°56' W 006°17'1616.2
2015-Jul-14 03:33N 35°57' W 005°57'1916.1
2015-Jul-14 02:23N 35°58' W 005°33'  

Dump ship's entire track history